Stations météo

Publicité
East malling, Grande-Bretagne (99008): Température de l'air & dewpoint: 18.01.2021 05:00:00 - 24.01.2021 05:00:00 (GMT)East malling, Grande-Bretagne (99008): Température de l'air -20cm: 18.01.2021 05:00:00 - 24.01.2021 05:00:00 (GMT)East malling, Grande-Bretagne (99008): Vitesse du vent & gusts: 18.01.2021 05:00:00 - 24.01.2021 05:00:00 (GMT)East malling, Grande-Bretagne (99008): Direction du vent: 18.01.2021 05:00:00 - 24.01.2021 05:00:00 (GMT)East malling, Grande-Bretagne (99008): reduced air pressure: 18.01.2021 05:00:00 - 24.01.2021 05:00:00 (GMT)East malling, Grande-Bretagne (99008): Ensoleillement: 18.01.2021 05:00:00 - 24.01.2021 05:00:00 (GMT)East malling, Grande-Bretagne (99008): Quantités de précipitations: 18.01.2021 05:00:00 - 24.01.2021 05:00:00 (GMT)
Date & Time tt [°C] td [°C] tt -20cm [°C] ff [km/h] ff [knt] fx [km/h] fx [knt] dd ppp [hPa] sd [min] rr [mm]
24.01.2021 05:00:00 -2,8 -3,5 - 4 2 - - SW 999,7 0 0,0
24.01.2021 04:00:00 -2,6 -3,4 - 8 4 - - S 999,8 0 0,0
24.01.2021 03:00:00 -2,7 -4,2 - 2 1 - - S 999,9 0 0,0
24.01.2021 02:00:00 -0,9 -2,4 - 8 4 - - W 999,7 0 0,0
24.01.2021 01:00:00 -0,3 -2,2 - 8 4 - - W 999,4 0 0,0
24.01.2021 00:00:00 0,0 -2,0 - 9 5 - - WSW 998,9 - 0,0
23.01.2021 23:00:00 0,1 -1,9 - 11 6 - - W 998,8 0 0,0
23.01.2021 22:00:00 -0,5 -2,3 - 9 5 - - SW 998,3 0 0,0
23.01.2021 21:00:00 -0,5 -2,8 - 5 3 - - WSW 997,8 0 0,0
23.01.2021 20:00:00 0,7 -1,8 - 5 3 - - W 997,3 0 0,0
23.01.2021 19:00:00 0,4 -1,8 - 5 3 - - SW 996,8 0 0,0
23.01.2021 18:00:00 1,0 -1,9 - 5 3 - - WSW 996,6 0 0,0
23.01.2021 17:00:00 2,2 -1,3 - 9 5 - - WNW 996,1 0 0,0
23.01.2021 16:00:00 3,1 0,2 - 9 5 - - WNW 995,6 30 0,0
23.01.2021 15:00:00 3,6 0,5 - 11 6 - - NW 995,1 18 0,0
23.01.2021 14:00:00 3,5 0,9 - 15 8 - - NW 995,0 0 0,0
23.01.2021 13:00:00 2,9 1,0 - 8 4 - - NNW 994,8 0 0,0
23.01.2021 12:00:00 1,8 1,5 - 2 1 - - NE 994,9 0 0,0
23.01.2021 11:00:00 0,5 0,3 - 2 1 - - N 994,8 0 0,0
23.01.2021 10:00:00 -0,3 -0,5 - 4 2 - - SSW 994,7 0 0,0
23.01.2021 09:00:00 -1,5 -1,8 4,7 4 2 - - W 994,5 0 0,0
23.01.2021 08:00:00 -2,0 -2,5 - 2 1 - - SSW 994,4 0 0,0
23.01.2021 07:00:00 -1,2 -1,9 - 2 1 - - SSW 994,3 0 0,0
23.01.2021 06:00:00 -0,5 -1,5 - 5 3 - - S 994,2 0 0,0
23.01.2021 05:00:00 1,2 -0,3 - 4 2 - - W 994,5 0 0,0
23.01.2021 04:00:00 2,4 0,6 - 8 4 - - W 994,5 0 0,0
23.01.2021 03:00:00 2,8 1,5 - 9 5 - - W 994,6 0 0,0
23.01.2021 02:00:00 2,9 1,5 - 4 2 - - SW 994,0 0 0,0
23.01.2021 01:00:00 3,1 1,7 - 9 5 - - SW 994,4 0 0,0
23.01.2021 00:00:00 3,1 1,6 - 8 4 - - SW 994,4 - 0,0
22.01.2021 23:00:00 3,0 1,4 - 9 5 - - SW 994,0 0 0,0
22.01.2021 22:00:00 2,9 1,1 - 8 4 - - WSW 993,8 0 0,2
22.01.2021 21:00:00 3,2 1,9 - 11 6 - - SSW 993,7 0 0,0
22.01.2021 20:00:00 3,7 2,1 - 9 5 - - S 994,0 0 0,0
22.01.2021 19:00:00 4,0 2,3 - 9 5 - - SSE 994,3 0 0,0
22.01.2021 18:00:00 4,5 1,8 - 11 6 - - S 994,6 0 0,0
22.01.2021 17:00:00 4,7 0,5 - 9 5 - - S 994,3 6 0,0
22.01.2021 16:00:00 6,7 0,7 - 8 4 - - SSW 994,4 48 0,0
22.01.2021 15:00:00 7,3 -0,1 - 9 5 - - SW 994,2 60 0,0
22.01.2021 14:00:00 7,1 1,3 - 13 7 - - SW 994,0 60 0,0
22.01.2021 13:00:00 6,9 1,2 - 9 5 - - WSW 994,1 60 0,0
22.01.2021 12:00:00 5,9 1,7 - 8 4 - - W 994,3 60 0,0
22.01.2021 11:00:00 4,0 1,4 - 5 3 - - SW 994,4 60 0,0
22.01.2021 10:00:00 2,4 1,6 - 2 1 - - SSW 993,9 42 0,0
22.01.2021 09:00:00 -0,3 -0,7 5,4 4 2 - - E 993,2 6 0,0
22.01.2021 08:00:00 -0,1 -0,6 - 9 5 - - SSW 992,2 0 0,0
22.01.2021 07:00:00 -0,1 -0,6 - 8 4 - - WSW 991,5 0 0,0
22.01.2021 06:00:00 0,5 -0,8 - 4 2 - - WNW 990,6 0 0,0
22.01.2021 05:00:00 1,8 0,7 - 15 8 - - WSW 990,5 0 0,0
22.01.2021 04:00:00 1,9 0,8 - 15 8 - - SW 990,0 0 0,0
22.01.2021 03:00:00 1,6 0,4 - 9 5 - - SSW 989,5 0 0,0
22.01.2021 02:00:00 2,6 0,6 - 5 3 - - W 988,8 0 0,0
22.01.2021 01:00:00 3,0 0,4 - 8 4 - - WSW 988,1 0 0,0
22.01.2021 00:00:00 4,2 1,2 - 9 5 - - W 987,7 - 0,0
21.01.2021 23:00:00 4,7 2,4 - 9 5 - - W 986,8 0 0,0
21.01.2021 22:00:00 5,3 2,8 - 11 6 - - WSW 985,8 0 0,0
21.01.2021 21:00:00 5,2 3,1 - 9 5 - - WSW 985,2 0 0,0
21.01.2021 20:00:00 4,9 3,1 - 8 4 - - SSW 984,5 0 0,0
21.01.2021 19:00:00 5,0 2,7 - 4 2 - - SW 984,5 0 0,0
21.01.2021 18:00:00 5,5 2,7 - 9 5 - - SSE 984,7 0 0,0
21.01.2021 17:00:00 6,3 3,2 - 11 6 - - S 985,3 0 0,0
21.01.2021 16:00:00 7,0 3,3 - 16 9 - - SSW 985,6 0 0,0
21.01.2021 15:00:00 8,0 3,8 - 21 11 - - SW 986,4 0 0,0
21.01.2021 14:00:00 8,4 3,3 - 28 15 - - SW 986,8 6 0,0
21.01.2021 13:00:00 8,6 2,6 - 24 13 48 26 WSW 987,5 42 0,0
21.01.2021 12:00:00 8,6 2,2 - 28 15 55 30 WSW 987,8 42 0,0
21.01.2021 11:00:00 8,3 2,9 - 29 16 52 28 SW 988,1 60 0,0
21.01.2021 10:00:00 7,7 2,4 - 31 17 54 29 SW 987,8 54 0,0
21.01.2021 09:00:00 6,5 2,3 6,4 28 15 48 26 SW 987,6 12 0,0
21.01.2021 08:00:00 6,0 1,8 - 28 15 48 26 SW 987,3 0 0,0
21.01.2021 07:00:00 5,4 1,9 - 22 12 - - SW 987,1 0 0,0
21.01.2021 06:00:00 4,4 1,2 - 21 11 - - SW 986,9 0 0,0
21.01.2021 05:00:00 4,2 1,0 - 22 12 - - SW 986,2 0 0,0
21.01.2021 04:00:00 4,8 1,0 - 26 14 48 26 WSW 985,3 0 0,0
21.01.2021 03:00:00 4,9 0,8 - 24 13 57 31 W 983,7 0 0,0
21.01.2021 02:00:00 5,6 1,5 - 35 19 67 36 W 981,0 0 0,2
21.01.2021 01:00:00 7,0 3,7 - 28 15 74 40 W 978,0 0 1,6
21.01.2021 00:00:00 9,9 9,1 - 31 17 63 34 SSW 975,3 - 1,2
20.01.2021 23:00:00 9,3 8,2 - 34 18 59 32 S 976,7 0 1,2
20.01.2021 22:00:00 8,5 7,3 - 31 17 57 31 S 978,9 0 0,6
20.01.2021 21:00:00 9,5 6,3 - 29 16 67 36 S 981,0 0 0,2
20.01.2021 20:00:00 9,9 6,0 - 28 15 63 34 S 982,9 0 0,0
20.01.2021 19:00:00 9,5 6,5 - 31 17 50 27 S 984,4 0 0,0
20.01.2021 18:00:00 9,0 7,4 - 29 16 52 28 S 985,4 0 0,6
20.01.2021 17:00:00 8,7 7,2 - 31 17 52 28 S 986,0 0 0,4
20.01.2021 16:00:00 8,9 7,0 - 26 14 48 26 SSW 986,8 0 0,4
20.01.2021 15:00:00 9,3 6,8 - 26 14 50 27 SSW 987,4 0 0,0
20.01.2021 14:00:00 9,0 7,3 - 26 14 - - S 988,3 0 0,0
20.01.2021 13:00:00 9,1 7,5 - 26 14 48 26 SSW 989,5 0 0,2
20.01.2021 12:00:00 8,9 7,1 - 29 16 55 30 SSW 990,8 0 0,2
20.01.2021 11:00:00 9,6 8,3 - 26 14 48 26 SSW 991,6 0 0,4
20.01.2021 10:00:00 9,5 8,5 - 24 13 46 25 SSW 992,1 0 0,8
20.01.2021 09:00:00 9,5 8,4 6,7 24 13 48 26 SSW 992,6 0 0,4
20.01.2021 08:00:00 9,4 8,3 - 26 14 48 26 SSW 993,2 0 0,2
20.01.2021 07:00:00 9,7 8,4 - 28 15 48 26 SW 993,5 0 0,4
20.01.2021 06:00:00 9,3 8,5 - 24 13 52 28 SSW 993,9 0 0,2
20.01.2021 05:00:00 9,5 8,6 - 26 14 - - SSW 994,6 0 0,0
20.01.2021 04:00:00 9,4 8,6 - 24 13 52 28 SSW 995,2 0 0,2
20.01.2021 03:00:00 9,5 8,5 - 28 15 52 28 SW 995,6 0 0,2
20.01.2021 02:00:00 9,6 8,8 - 26 14 48 26 SW 996,5 0 0,4
20.01.2021 01:00:00 9,6 8,8 - 28 15 48 26 SW 997,0 0 0,4
20.01.2021 00:00:00 9,7 8,8 - 29 16 50 27 SW 997,9 - 0,2
19.01.2021 23:00:00 9,5 8,6 - 29 16 54 29 SSW 998,5 0 0,2
19.01.2021 22:00:00 9,2 8,3 - 26 14 48 26 SSW 999,2 0 0,0
19.01.2021 21:00:00 9,2 8,1 - 26 14 52 28 SSW 1000,1 0 0,0
19.01.2021 20:00:00 9,5 7,7 - 28 15 50 27 SW 1001,0 0 0,0
19.01.2021 19:00:00 10,1 7,3 - 31 17 52 28 SW 1001,5 0 0,0
19.01.2021 18:00:00 10,2 7,5 - 31 17 54 29 SW 1002,2 0 0,0
19.01.2021 17:00:00 9,6 7,7 - 26 14 48 26 SW 1003,1 0 0,0
19.01.2021 16:00:00 9,1 8,0 - 22 12 46 25 SW 1004,1 0 0,0
19.01.2021 15:00:00 9,6 7,9 - 26 14 50 27 WSW 1004,6 0 0,0
19.01.2021 14:00:00 10,1 7,7 - 24 13 50 27 SW 1004,9 0 0,0
19.01.2021 13:00:00 10,7 7,2 - 26 14 54 29 SW 1005,9 0 0,2
19.01.2021 12:00:00 10,7 8,4 - 22 12 50 27 WSW 1006,4 0 0,0
19.01.2021 11:00:00 11,0 9,2 - 18 10 - - SW 1006,9 0 0,0
19.01.2021 10:00:00 10,6 9,6 - 21 11 - - WSW 1007,0 0 0,0
19.01.2021 09:00:00 11,1 9,1 5,4 24 13 - - WSW 1006,8 0 0,0
19.01.2021 08:00:00 11,1 9,3 - 24 13 - - WSW 1006,4 0 0,0
19.01.2021 07:00:00 10,9 9,6 - 26 14 - - WSW 1006,3 0 0,0
19.01.2021 06:00:00 10,4 9,6 - 22 12 - - SW 1006,2 0 0,2
19.01.2021 05:00:00 10,1 9,3 - 22 12 46 25 SW 1006,7 0 0,6
19.01.2021 04:00:00 9,5 8,6 - 28 15 48 26 SW 1007,1 0 1,8
19.01.2021 03:00:00 9,1 8,3 - 28 15 52 28 SW 1008,2 0 0,4
19.01.2021 02:00:00 9,0 8,3 - 24 13 - - SW 1009,6 0 0,0
19.01.2021 01:00:00 8,5 8,0 - 21 11 46 25 SSW 1011,1 0 0,0
19.01.2021 00:00:00 8,1 7,6 - 18 10 - - SW 1012,7 - 0,0
18.01.2021 23:00:00 8,0 6,8 - 22 12 - - SW 1013,9 0 0,0
18.01.2021 22:00:00 7,2 6,4 - 18 10 - - SSW 1015,0 0 0,0
18.01.2021 21:00:00 7,9 6,0 - 24 13 - - SW 1016,2 0 0,0
18.01.2021 20:00:00 7,7 5,4 - 16 9 - - SSW 1017,1 0 0,0
18.01.2021 19:00:00 6,7 5,0 - 11 6 - - SSW 1018,2 0 0,0
18.01.2021 18:00:00 6,4 4,3 - 9 5 - - S 1019,0 0 0,0
18.01.2021 17:00:00 6,3 3,7 - 15 8 - - SSW 1019,6 0 0,0
18.01.2021 16:00:00 6,1 3,7 - 9 5 - - SSW 1020,3 0 0,0
18.01.2021 15:00:00 6,3 3,4 - 11 6 - - SW 1020,8 0 0,0
18.01.2021 14:00:00 6,4 3,3 - 13 7 - - WSW 1021,1 0 0,0
18.01.2021 13:00:00 6,4 3,6 - 15 8 - - WSW 1021,9 12 0,0
18.01.2021 12:00:00 5,8 3,4 - 15 8 - - SW 1023,0 42 0,0
18.01.2021 11:00:00 4,6 2,9 - 15 8 - - SW 1023,7 6 0,0
18.01.2021 10:00:00 3,4 2,5 - 9 5 - - SW 1024,0 0 0,0
18.01.2021 09:00:00 2,4 2,1 4,0 9 5 - - SW 1024,2 0 0,0
18.01.2021 08:00:00 0,9 0,4 - 4 2 - - SE 1024,4 0 0,0
18.01.2021 07:00:00 1,8 1,3 - 11 6 - - SW 1024,3 0 0,0
18.01.2021 06:00:00 2,2 1,6 - 13 7 - - SW 1024,3 0 0,0
18.01.2021 05:00:00 2,4 1,8 - 11 6 - - SW 1024,5 0 0,0

tt = Température de l'air
td = dewpoint
tt -20cm = Température de l'air -20cm
ff = Vitesse du vent
fx = gusts
dd = Direction du vent
ppp = reduced air pressure
sd = Ensoleillement
rr = Quantités de précipitations

stations d'obs. à proximité